Time,TemperatureF,DewpointF,PressureIn,WindDirection,WindDirectionDegrees,WindSpeedMPH,WindSpeedGustMPH,Humidity,HourlyPrecipIn,Conditions,Clouds,dailyrainin,SolarRadiationWatts/m^2,SoftwareType,DateUTC
2013-08-29 00:01:00,62.0,58.0,-100.00,NNW,330,2.0,3.0,87,0.00,,,0.01,0.000000,,2013-08-29 06:01:00,
2013-08-29 00:43:00,62.0,58.0,-100.00,NNW,330,2.0,3.0,87,0.00,,,0.01,0.000000,,2013-08-29 06:43:00,
2013-08-29 00:52:00,62.0,58.0,-100.00,NNW,330,2.0,3.0,87,0.00,,,0.01,0.000000,,2013-08-29 06:52:00,
2013-08-29 01:01:00,62.0,58.0,-100.00,WNW,297,1.0,4.0,88,0.00,,,0.01,0.000000,,2013-08-29 07:01:00,
2013-08-29 01:42:00,62.0,58.0,-100.00,WNW,297,1.0,4.0,88,0.00,,,0.01,0.000000,,2013-08-29 07:42:00,
2013-08-29 01:53:00,62.0,58.0,-100.00,WNW,297,1.0,4.0,88,0.00,,,0.01,0.000000,,2013-08-29 07:53:00,
2013-08-29 02:01:00,63.0,58.0,-100.00,NNW,345,1.0,4.0,84,0.00,,,0.01,0.000000,,2013-08-29 08:01:00,
2013-08-29 02:22:00,63.0,58.0,-100.00,NNW,345,1.0,4.0,84,0.00,,,0.01,0.000000,,2013-08-29 08:22:00,
2013-08-29 02:32:00,63.0,58.0,-100.00,NNW,345,1.0,4.0,84,0.00,,,0.01,0.000000,,2013-08-29 08:32:00,
2013-08-29 02:42:00,63.0,58.0,-100.00,NNW,345,1.0,4.0,84,0.00,,,0.01,0.000000,,2013-08-29 08:42:00,
2013-08-29 02:52:00,63.0,58.0,-100.00,NNW,345,1.0,4.0,84,0.00,,,0.01,0.000000,,2013-08-29 08:52:00,
2013-08-29 03:01:00,63.0,58.0,-100.00,NNW,334,5.0,10.0,83,0.00,,,0.01,0.000000,,2013-08-29 09:01:00,
2013-08-29 03:43:00,63.0,58.0,-100.00,NNW,334,5.0,10.0,83,0.00,,,0.01,0.000000,,2013-08-29 09:43:00,
2013-08-29 03:55:00,63.0,58.0,-100.00,NNW,334,5.0,10.0,83,0.00,,,0.01,0.000000,,2013-08-29 09:55:00,
2013-08-29 04:01:00,63.0,60.0,-100.00,NNW,328,5.0,7.0,89,0.00,,,0.01,0.000000,,2013-08-29 10:01:00,
2013-08-29 04:43:00,63.0,60.0,-100.00,NNW,328,5.0,7.0,89,0.00,,,0.01,0.000000,,2013-08-29 10:43:00,
2013-08-29 04:53:00,63.0,60.0,-100.00,NNW,328,5.0,7.0,89,0.00,,,0.01,0.000000,,2013-08-29 10:53:00,
2013-08-29 05:01:00,61.0,59.0,-100.00,North,349,3.0,7.0,92,0.19,,,0.20,0.000000,,2013-08-29 11:01:00,
2013-08-29 05:22:00,61.0,59.0,-100.00,North,349,3.0,7.0,92,0.19,,,0.20,0.000000,,2013-08-29 11:22:00,
2013-08-29 05:33:00,61.0,59.0,-100.00,North,349,3.0,7.0,92,0.19,,,0.20,0.000000,,2013-08-29 11:33:00,
2013-08-29 05:42:00,61.0,59.0,-100.00,North,349,3.0,7.0,92,0.19,,,0.20,0.000000,,2013-08-29 11:42:00,
2013-08-29 05:52:00,61.0,59.0,-100.00,North,349,3.0,7.0,92,0.19,,,0.20,0.000000,,2013-08-29 11:52:00,
2013-08-29 06:01:00,61.0,60.0,-100.00,SSE,147,6.0,10.0,98,0.21,,,0.41,0.000000,,2013-08-29 12:01:00,
2013-08-29 06:42:00,61.0,60.0,-100.00,SSE,147,6.0,10.0,98,0.21,,,0.41,0.000000,,2013-08-29 12:42:00,
2013-08-29 06:52:00,61.0,60.0,-100.00,SSE,147,6.0,10.0,98,0.21,,,0.41,0.000000,,2013-08-29 12:52:00,
2013-08-29 07:01:00,60.0,58.0,-100.00,ESE,121,6.0,9.0,92,0.18,,,0.59,1.000000,,2013-08-29 13:01:00,
2013-08-29 07:42:00,60.0,58.0,-100.00,ESE,121,6.0,9.0,92,0.18,,,0.59,1.000000,,2013-08-29 13:42:00,
2013-08-29 07:52:00,60.0,58.0,-100.00,ESE,121,6.0,9.0,92,0.18,,,0.59,1.000000,,2013-08-29 13:52:00,
2013-08-29 08:01:00,60.0,57.0,-100.00,ESE,103,7.0,12.0,91,0.03,,,0.62,9.000000,,2013-08-29 14:01:00,
2013-08-29 08:42:00,60.0,57.0,-100.00,ESE,103,7.0,12.0,91,0.03,,,0.62,9.000000,,2013-08-29 14:42:00,
2013-08-29 08:52:00,60.0,57.0,-100.00,ESE,103,7.0,12.0,91,0.03,,,0.62,9.000000,,2013-08-29 14:52:00,
2013-08-29 09:01:00,62.0,61.0,-100.00,ESE,122,3.0,11.0,95,0.01,,,0.63,64.000000,,2013-08-29 15:01:00,
2013-08-29 09:43:00,62.0,61.0,-100.00,ESE,122,3.0,11.0,95,0.01,,,0.63,64.000000,,2013-08-29 15:43:00,
2013-08-29 09:53:00,62.0,61.0,-100.00,ESE,122,3.0,11.0,95,0.01,,,0.63,64.000000,,2013-08-29 15:53:00,
2013-08-29 10:01:00,62.0,61.0,-100.00,SSE,162,2.0,6.0,96,0.00,,,0.63,94.000000,,2013-08-29 16:01:00,
2013-08-29 10:43:00,62.0,61.0,-100.00,SSE,162,2.0,6.0,96,0.00,,,0.63,94.000000,,2013-08-29 16:43:00,
2013-08-29 10:54:00,62.0,61.0,-100.00,SSE,162,2.0,6.0,96,0.00,,,0.63,94.000000,,2013-08-29 16:54:00,
2013-08-29 11:01:00,65.0,63.0,-100.00,NNE,31,6.0,9.0,93,0.00,,,0.63,262.000000,,2013-08-29 17:01:00,
2013-08-29 11:23:00,65.0,63.0,-100.00,NNE,31,6.0,9.0,93,0.00,,,0.63,262.000000,,2013-08-29 17:23:00,
2013-08-29 11:34:00,65.0,63.0,-100.00,NNE,31,6.0,9.0,93,0.00,,,0.63,262.000000,,2013-08-29 17:34:00,
2013-08-29 11:44:00,65.0,63.0,-100.00,NNE,31,6.0,9.0,93,0.00,,,0.63,262.000000,,2013-08-29 17:44:00,
2013-08-29 11:53:00,65.0,63.0,-100.00,NNE,31,6.0,9.0,93,0.00,,,0.63,262.000000,,2013-08-29 17:53:00,
2013-08-29 12:01:00,63.0,60.0,-100.00,ESE,123,5.0,10.0,90,0.01,,,0.64,260.000000,,2013-08-29 18:01:00,
2013-08-29 12:42:00,63.0,60.0,-100.00,ESE,123,5.0,10.0,90,0.01,,,0.64,260.000000,,2013-08-29 18:42:00,
2013-08-29 12:52:00,63.0,60.0,-100.00,ESE,123,5.0,10.0,90,0.01,,,0.64,260.000000,,2013-08-29 18:52:00,
2013-08-29 13:01:00,65.0,63.0,-100.00,NNW,332,3.0,7.0,93,0.00,,,0.64,194.000000,,2013-08-29 19:01:00,
2013-08-29 13:42:00,65.0,63.0,-100.00,NNW,332,3.0,7.0,93,0.00,,,0.64,194.000000,,2013-08-29 19:42:00,
2013-08-29 13:53:00,65.0,63.0,-100.00,NNW,332,3.0,7.0,93,0.00,,,0.64,194.000000,,2013-08-29 19:53:00,
2013-08-29 14:01:00,71.0,63.0,-100.00,ESE,116,2.0,5.0,75,0.00,,,0.64,424.000000,,2013-08-29 20:01:00,
2013-08-29 14:22:00,71.0,63.0,-100.00,ESE,116,2.0,5.0,75,0.00,,,0.64,424.000000,,2013-08-29 20:22:00,
2013-08-29 14:32:00,71.0,63.0,-100.00,ESE,116,2.0,5.0,75,0.00,,,0.64,424.000000,,2013-08-29 20:32:00,
2013-08-29 14:42:00,71.0,63.0,-100.00,ESE,116,2.0,5.0,75,0.00,,,0.64,424.000000,,2013-08-29 20:42:00,
2013-08-29 14:52:00,71.0,63.0,-100.00,ESE,116,2.0,5.0,75,0.00,,,0.64,424.000000,,2013-08-29 20:52:00,
2013-08-29 15:01:00,74.0,65.0,-100.00,SSE,155,3.0,8.0,73,0.00,,,0.64,515.000000,,2013-08-29 21:01:00,
2013-08-29 15:44:00,74.0,65.0,-100.00,SSE,155,3.0,8.0,73,0.00,,,0.64,515.000000,,2013-08-29 21:44:00,
2013-08-29 15:54:00,74.0,65.0,-100.00,SSE,155,3.0,8.0,73,0.00,,,0.64,515.000000,,2013-08-29 21:54:00,
2013-08-29 16:01:00,74.0,65.0,-100.00,SW,215,6.0,11.0,73,0.00,,,0.64,416.000000,,2013-08-29 22:01:00,
2013-08-29 16:24:00,74.0,65.0,-100.00,SW,215,6.0,11.0,73,0.00,,,0.64,416.000000,,2013-08-29 22:24:00,
2013-08-29 16:33:00,74.0,65.0,-100.00,SW,215,6.0,11.0,73,0.00,,,0.64,416.000000,,2013-08-29 22:33:00,
2013-08-29 16:43:00,74.0,65.0,-100.00,SW,215,6.0,11.0,73,0.00,,,0.64,416.000000,,2013-08-29 22:43:00,
2013-08-29 16:53:00,74.0,65.0,-100.00,SW,215,6.0,11.0,73,0.00,,,0.64,416.000000,,2013-08-29 22:53:00,
2013-08-29 17:01:00,75.0,65.0,-100.00,SSE,156,6.0,10.0,71,0.00,,,0.64,374.000000,,2013-08-29 23:01:00,
2013-08-29 17:43:00,75.0,65.0,-100.00,SSE,156,6.0,10.0,71,0.00,,,0.64,374.000000,,2013-08-29 23:43:00,
2013-08-29 17:53:00,75.0,65.0,-100.00,SSE,156,6.0,10.0,71,0.00,,,0.64,374.000000,,2013-08-29 23:53:00,
2013-08-29 18:01:00,75.0,62.0,-100.00,WSW,244,7.0,11.0,63,0.00,,,0.64,314.000000,,2013-08-30 00:01:00,
2013-08-29 18:22:00,75.0,62.0,-100.00,WSW,244,7.0,11.0,63,0.00,,,0.64,314.000000,,2013-08-30 00:22:00,
2013-08-29 18:32:00,75.0,62.0,-100.00,WSW,244,7.0,11.0,63,0.00,,,0.64,314.000000,,2013-08-30 00:32:00,
2013-08-29 18:42:00,75.0,62.0,-100.00,WSW,244,7.0,11.0,63,0.00,,,0.64,314.000000,,2013-08-30 00:42:00,
2013-08-29 18:52:00,75.0,62.0,-100.00,WSW,244,7.0,11.0,63,0.00,,,0.64,314.000000,,2013-08-30 00:52:00,
2013-08-29 19:01:00,71.0,56.0,-100.00,SW,235,6.0,11.0,60,0.00,,,0.64,185.000000,,2013-08-30 01:01:00,
2013-08-29 19:42:00,71.0,56.0,-100.00,SW,235,6.0,11.0,60,0.00,,,0.64,185.000000,,2013-08-30 01:42:00,
2013-08-29 19:52:00,71.0,56.0,-100.00,SW,235,6.0,11.0,60,0.00,,,0.64,185.000000,,2013-08-30 01:52:00,
2013-08-29 20:01:00,66.0,57.0,-100.00,NE,35,3.0,8.0,73,0.00,,,0.64,12.000000,,2013-08-30 02:01:00,
2013-08-29 20:42:00,66.0,57.0,-100.00,NE,35,3.0,8.0,73,0.00,,,0.64,12.000000,,2013-08-30 02:42:00,
2013-08-29 20:52:00,66.0,57.0,-100.00,NE,35,3.0,8.0,73,0.00,,,0.64,12.000000,,2013-08-30 02:52:00,
2013-08-29 21:01:00,65.0,59.0,-100.00,North,358,4.0,6.0,81,0.00,,,0.63,0.000000,,2013-08-30 03:01:00,
2013-08-29 21:43:00,65.0,59.0,-100.00,North,358,4.0,6.0,81,0.00,,,0.63,0.000000,,2013-08-30 03:43:00,
2013-08-29 21:55:00,65.0,59.0,-100.00,North,358,4.0,6.0,81,0.00,,,0.63,0.000000,,2013-08-30 03:55:00,
2013-08-29 22:01:00,65.0,61.0,-100.00,NNE,14,4.0,5.0,88,0.00,,,0.63,0.000000,,2013-08-30 04:01:00,
2013-08-29 22:44:00,65.0,61.0,-100.00,NNE,14,4.0,5.0,88,0.00,,,0.63,0.000000,,2013-08-30 04:44:00,
2013-08-29 22:54:00,65.0,61.0,-100.00,NNE,14,4.0,5.0,88,0.00,,,0.63,0.000000,,2013-08-30 04:54:00,
2013-08-29 23:01:00,63.0,60.0,-100.00,NNW,343,4.0,6.0,90,0.00,,,0.63,0.000000,,2013-08-30 05:01:00,
2013-08-29 23:23:00,63.0,60.0,-100.00,NNW,343,4.0,6.0,90,0.00,,,0.63,0.000000,,2013-08-30 05:23:00,
2013-08-29 23:35:00,63.0,60.0,-100.00,NNW,343,4.0,6.0,90,0.00,,,0.63,0.000000,,2013-08-30 05:35:00,
2013-08-29 23:42:00,63.0,60.0,-100.00,NNW,343,4.0,6.0,90,0.00,,,0.63,0.000000,,2013-08-30 05:42:00,
2013-08-29 23:52:00,63.0,60.0,-100.00,NNW,343,4.0,6.0,90,0.00,,,0.63,0.000000,,2013-08-30 05:52:00,